sensor_id;sensor_type;location;lat;lon;timestamp;P1;durP1;ratioP1;P2;durP2;ratioP2
21814;SDS011;11069;48.988;8.450;2023-02-28T00:00:32;6.90;;;5.20;;
21814;SDS011;11069;48.988;8.450;2023-02-28T00:02:58;5.57;;;4.80;;
21814;SDS011;11069;48.988;8.450;2023-02-28T00:05:25;5.63;;;5.13;;
21814;SDS011;11069;48.988;8.450;2023-02-28T00:07:52;5.97;;;5.38;;
21814;SDS011;11069;48.988;8.450;2023-02-28T00:10:21;6.00;;;5.40;;
21814;SDS011;11069;48.988;8.450;2023-02-28T00:12:49;6.00;;;5.40;;
21814;SDS011;11069;48.988;8.450;2023-02-28T00:15:16;7.70;;;5.30;;
21814;SDS011;11069;48.988;8.450;2023-02-28T00:17:42;5.60;;;5.03;;
21814;SDS011;11069;48.988;8.450;2023-02-28T00:20:10;5.82;;;4.90;;
21814;SDS011;11069;48.988;8.450;2023-02-28T00:22:37;5.45;;;4.95;;
21814;SDS011;11069;48.988;8.450;2023-02-28T00:25:04;5.43;;;4.93;;
21814;SDS011;11069;48.988;8.450;2023-02-28T00:27:32;5.75;;;5.13;;
21814;SDS011;11069;48.988;8.450;2023-02-28T00:29:58;5.82;;;4.93;;
21814;SDS011;11069;48.988;8.450;2023-02-28T00:32:23;5.55;;;5.05;;
21814;SDS011;11069;48.988;8.450;2023-02-28T00:34:49;5.68;;;4.95;;
21814;SDS011;11069;48.988;8.450;2023-02-28T00:37:15;6.53;;;5.22;;
21814;SDS011;11069;48.988;8.450;2023-02-28T00:39:40;6.28;;;4.82;;
21814;SDS011;11069;48.988;8.450;2023-02-28T00:42:06;6.13;;;5.13;;
21814;SDS011;11069;48.988;8.450;2023-02-28T00:44:32;5.57;;;5.00;;
21814;SDS011;11069;48.988;8.450;2023-02-28T00:46:58;5.88;;;5.10;;
21814;SDS011;11069;48.988;8.450;2023-02-28T00:49:25;5.53;;;4.95;;
21814;SDS011;11069;48.988;8.450;2023-02-28T00:51:51;6.05;;;5.20;;
21814;SDS011;11069;48.988;8.450;2023-02-28T00:54:17;5.93;;;4.82;;
21814;SDS011;11069;48.988;8.450;2023-02-28T00:56:43;5.88;;;5.35;;
21814;SDS011;11069;48.988;8.450;2023-02-28T00:59:11;6.00;;;5.07;;
21814;SDS011;11069;48.988;8.450;2023-02-28T01:01:37;6.35;;;4.97;;
21814;SDS011;11069;48.988;8.450;2023-02-28T01:04:02;5.80;;;5.13;;
21814;SDS011;11069;48.988;8.450;2023-02-28T01:06:29;5.40;;;4.90;;
21814;SDS011;11069;48.988;8.450;2023-02-28T01:08:55;6.90;;;5.40;;
21814;SDS011;11069;48.988;8.450;2023-02-28T01:11:20;7.20;;;5.72;;
21814;SDS011;11069;48.988;8.450;2023-02-28T01:13:46;5.70;;;5.10;;
21814;SDS011;11069;48.988;8.450;2023-02-28T01:16:12;6.00;;;5.40;;
21814;SDS011;11069;48.988;8.450;2023-02-28T01:18:38;5.95;;;5.35;;
21814;SDS011;11069;48.988;8.450;2023-02-28T01:21:07;6.00;;;5.32;;
21814;SDS011;11069;48.988;8.450;2023-02-28T01:23:38;6.35;;;5.32;;
21814;SDS011;11069;48.988;8.450;2023-02-28T01:26:08;9.23;;;5.70;;
21814;SDS011;11069;48.988;8.450;2023-02-28T01:28:42;5.90;;;5.30;;
21814;SDS011;11069;48.988;8.450;2023-02-28T01:31:08;5.75;;;5.15;;
21814;SDS011;11069;48.988;8.450;2023-02-28T01:33:35;6.05;;;5.30;;
21814;SDS011;11069;48.988;8.450;2023-02-28T01:36:02;6.15;;;5.28;;
21814;SDS011;11069;48.988;8.450;2023-02-28T01:38:32;5.53;;;5.00;;
21814;SDS011;11069;48.988;8.450;2023-02-28T01:40:58;5.72;;;5.20;;
21814;SDS011;11069;48.988;8.450;2023-02-28T01:45:53;5.70;;;5.20;;
21814;SDS011;11069;48.988;8.450;2023-02-28T01:48:21;5.45;;;4.95;;
21814;SDS011;11069;48.988;8.450;2023-02-28T01:50:58;5.85;;;5.15;;
21814;SDS011;11069;48.988;8.450;2023-02-28T01:53:32;6.45;;;5.53;;
21814;SDS011;11069;48.988;8.450;2023-02-28T01:56:03;6.18;;;5.57;;
21814;SDS011;11069;48.988;8.450;2023-02-28T01:58:32;5.25;;;4.75;;
21814;SDS011;11069;48.988;8.450;2023-02-28T02:00:57;6.55;;;5.30;;
21814;SDS011;11069;48.988;8.450;2023-02-28T02:03:23;8.20;;;5.60;;
21814;SDS011;11069;48.988;8.450;2023-02-28T02:05:49;5.78;;;5.28;;
21814;SDS011;11069;48.988;8.450;2023-02-28T02:08:17;6.15;;;5.40;;
21814;SDS011;11069;48.988;8.450;2023-02-28T02:18:54;6.07;;;5.55;;
21814;SDS011;11069;48.988;8.450;2023-02-28T02:30:17;7.25;;;5.70;;
21814;SDS011;11069;48.988;8.450;2023-02-28T02:33:05;7.90;;;6.45;;
21814;SDS011;11069;48.988;8.450;2023-02-28T02:43:29;7.32;;;6.43;;
21814;SDS011;11069;48.988;8.450;2023-02-28T02:46:02;6.70;;;5.95;;
21814;SDS011;11069;48.988;8.450;2023-02-28T02:48:45;6.50;;;5.90;;
21814;SDS011;11069;48.988;8.450;2023-02-28T02:51:13;6.38;;;5.78;;
21814;SDS011;11069;48.988;8.450;2023-02-28T02:53:43;7.00;;;6.30;;
21814;SDS011;11069;48.988;8.450;2023-02-28T02:56:18;6.82;;;6.10;;
21814;SDS011;11069;48.988;8.450;2023-02-28T02:58:48;7.50;;;6.57;;
21814;SDS011;11069;48.988;8.450;2023-02-28T03:01:16;7.70;;;6.25;;
21814;SDS011;11069;48.988;8.450;2023-02-28T03:03:52;7.95;;;6.45;;
21814;SDS011;11069;48.988;8.450;2023-02-28T03:06:23;7.72;;;6.80;;
21814;SDS011;11069;48.988;8.450;2023-02-28T03:08:49;7.03;;;6.22;;
21814;SDS011;11069;48.988;8.450;2023-02-28T03:11:15;7.53;;;6.72;;
21814;SDS011;11069;48.988;8.450;2023-02-28T03:19:06;6.57;;;5.97;;
21814;SDS011;11069;48.988;8.450;2023-02-28T03:24:56;9.23;;;7.00;;
21814;SDS011;11069;48.988;8.450;2023-02-28T03:30:06;9.25;;;7.32;;
21814;SDS011;11069;48.988;8.450;2023-02-28T03:32:54;7.07;;;6.38;;
21814;SDS011;11069;48.988;8.450;2023-02-28T03:35:23;7.40;;;6.70;;
21814;SDS011;11069;48.988;8.450;2023-02-28T03:37:53;7.18;;;6.50;;
21814;SDS011;11069;48.988;8.450;2023-02-28T03:40:25;8.43;;;7.38;;
21814;SDS011;11069;48.988;8.450;2023-02-28T03:42:57;7.55;;;6.75;;
21814;SDS011;11069;48.988;8.450;2023-02-28T03:45:30;7.40;;;6.60;;
21814;SDS011;11069;48.988;8.450;2023-02-28T03:50:35;8.90;;;6.95;;
21814;SDS011;11069;48.988;8.450;2023-02-28T03:53:09;7.32;;;6.50;;
21814;SDS011;11069;48.988;8.450;2023-02-28T03:58:49;7.65;;;6.53;;
21814;SDS011;11069;48.988;8.450;2023-02-28T04:03:49;8.18;;;7.32;;
21814;SDS011;11069;48.988;8.450;2023-02-28T04:06:19;7.40;;;6.70;;
21814;SDS011;11069;48.988;8.450;2023-02-28T04:08:46;8.95;;;6.88;;
21814;SDS011;11069;48.988;8.450;2023-02-28T04:13:38;8.40;;;7.50;;
21814;SDS011;11069;48.988;8.450;2023-02-28T04:16:06;7.53;;;6.70;;
21814;SDS011;11069;48.988;8.450;2023-02-28T04:18:38;8.00;;;7.20;;
21814;SDS011;11069;48.988;8.450;2023-02-28T04:21:04;7.82;;;7.13;;
21814;SDS011;11069;48.988;8.450;2023-02-28T04:23:30;8.27;;;6.75;;
21814;SDS011;11069;48.988;8.450;2023-02-28T04:25:56;7.53;;;6.75;;
21814;SDS011;11069;48.988;8.450;2023-02-28T04:28:22;8.13;;;7.30;;
21814;SDS011;11069;48.988;8.450;2023-02-28T04:30:53;8.05;;;6.93;;
21814;SDS011;11069;48.988;8.450;2023-02-28T04:33:26;7.50;;;6.80;;
21814;SDS011;11069;48.988;8.450;2023-02-28T04:36:03;9.73;;;7.50;;
21814;SDS011;11069;48.988;8.450;2023-02-28T04:38:32;8.20;;;7.00;;
21814;SDS011;11069;48.988;8.450;2023-02-28T04:40:59;7.82;;;7.07;;
21814;SDS011;11069;48.988;8.450;2023-02-28T04:43:26;8.88;;;7.88;;
21814;SDS011;11069;48.988;8.450;2023-02-28T04:45:52;7.78;;;7.07;;
21814;SDS011;11069;48.988;8.450;2023-02-28T04:48:21;8.35;;;7.38;;
21814;SDS011;11069;48.988;8.450;2023-02-28T04:50:48;8.43;;;7.38;;
21814;SDS011;11069;48.988;8.450;2023-02-28T04:53:14;8.77;;;7.95;;
21814;SDS011;11069;48.988;8.450;2023-02-28T04:55:39;8.38;;;7.57;;
21814;SDS011;11069;48.988;8.450;2023-02-28T04:58:05;9.20;;;8.30;;
21814;SDS011;11069;48.988;8.450;2023-02-28T05:00:31;9.02;;;8.05;;
21814;SDS011;11069;48.988;8.450;2023-02-28T05:02:56;11.90;;;8.60;;
21814;SDS011;11069;48.988;8.450;2023-02-28T05:05:22;9.45;;;8.50;;
21814;SDS011;11069;48.988;8.450;2023-02-28T05:07:47;9.10;;;8.10;;
21814;SDS011;11069;48.988;8.450;2023-02-28T05:10:13;9.55;;;8.57;;
21814;SDS011;11069;48.988;8.450;2023-02-28T05:12:39;11.10;;;8.07;;
21814;SDS011;11069;48.988;8.450;2023-02-28T05:15:05;9.02;;;8.13;;
21814;SDS011;11069;48.988;8.450;2023-02-28T05:17:31;8.88;;;8.00;;
21814;SDS011;11069;48.988;8.450;2023-02-28T05:19:56;9.85;;;8.75;;
21814;SDS011;11069;48.988;8.450;2023-02-28T05:22:22;9.43;;;8.52;;
21814;SDS011;11069;48.988;8.450;2023-02-28T05:24:48;9.13;;;8.20;;
21814;SDS011;11069;48.988;8.450;2023-02-28T05:27:13;10.40;;;8.90;;
21814;SDS011;11069;48.988;8.450;2023-02-28T05:29:39;9.30;;;8.40;;
21814;SDS011;11069;48.988;8.450;2023-02-28T05:32:11;9.68;;;8.75;;
21814;SDS011;11069;48.988;8.450;2023-02-28T05:34:40;9.90;;;8.90;;
21814;SDS011;11069;48.988;8.450;2023-02-28T05:37:06;9.50;;;8.43;;
21814;SDS011;11069;48.988;8.450;2023-02-28T05:39:36;9.38;;;8.48;;
21814;SDS011;11069;48.988;8.450;2023-02-28T05:42:02;10.52;;;8.88;;
21814;SDS011;11069;48.988;8.450;2023-02-28T05:44:27;10.48;;;8.70;;
21814;SDS011;11069;48.988;8.450;2023-02-28T05:46:53;9.70;;;8.43;;
21814;SDS011;11069;48.988;8.450;2023-02-28T05:49:18;8.85;;;7.97;;
21814;SDS011;11069;48.988;8.450;2023-02-28T05:51:44;12.25;;;8.35;;
21814;SDS011;11069;48.988;8.450;2023-02-28T05:54:10;8.77;;;7.97;;
21814;SDS011;11069;48.988;8.450;2023-02-28T05:56:35;10.55;;;9.07;;
21814;SDS011;11069;48.988;8.450;2023-02-28T05:59:03;10.25;;;8.57;;
21814;SDS011;11069;48.988;8.450;2023-02-28T06:01:33;9.35;;;8.45;;
21814;SDS011;11069;48.988;8.450;2023-02-28T06:04:01;9.25;;;8.35;;
21814;SDS011;11069;48.988;8.450;2023-02-28T06:06:29;9.57;;;8.65;;
21814;SDS011;11069;48.988;8.450;2023-02-28T06:08:55;9.98;;;8.82;;
21814;SDS011;11069;48.988;8.450;2023-02-28T06:11:21;9.10;;;8.20;;
21814;SDS011;11069;48.988;8.450;2023-02-28T06:13:52;9.13;;;8.20;;
21814;SDS011;11069;48.988;8.450;2023-02-28T06:16:22;10.48;;;8.77;;
21814;SDS011;11069;48.988;8.450;2023-02-28T06:18:48;9.13;;;8.23;;
21814;SDS011;11069;48.988;8.450;2023-02-28T06:21:14;10.00;;;9.00;;
21814;SDS011;11069;48.988;8.450;2023-02-28T06:23:42;11.90;;;8.35;;
21814;SDS011;11069;48.988;8.450;2023-02-28T06:26:08;10.40;;;9.40;;
21814;SDS011;11069;48.988;8.450;2023-02-28T06:28:34;10.60;;;8.77;;
21814;SDS011;11069;48.988;8.450;2023-02-28T06:31:06;9.75;;;8.50;;
21814;SDS011;11069;48.988;8.450;2023-02-28T06:33:33;9.68;;;8.68;;
21814;SDS011;11069;48.988;8.450;2023-02-28T06:35:58;10.07;;;8.80;;
21814;SDS011;11069;48.988;8.450;2023-02-28T06:38:24;9.93;;;8.93;;
21814;SDS011;11069;48.988;8.450;2023-02-28T06:40:56;9.70;;;8.73;;
21814;SDS011;11069;48.988;8.450;2023-02-28T06:43:23;10.35;;;9.25;;
21814;SDS011;11069;48.988;8.450;2023-02-28T06:45:50;9.43;;;8.48;;
21814;SDS011;11069;48.988;8.450;2023-02-28T06:48:15;12.40;;;8.65;;
21814;SDS011;11069;48.988;8.450;2023-02-28T06:50:41;9.35;;;8.45;;
21814;SDS011;11069;48.988;8.450;2023-02-28T06:53:06;10.70;;;8.85;;
21814;SDS011;11069;48.988;8.450;2023-02-28T06:55:32;9.70;;;8.60;;
21814;SDS011;11069;48.988;8.450;2023-02-28T06:57:58;10.07;;;9.07;;
21814;SDS011;11069;48.988;8.450;2023-02-28T07:00:24;11.85;;;9.20;;
21814;SDS011;11069;48.988;8.450;2023-02-28T07:02:50;12.52;;;8.85;;
21814;SDS011;11069;48.988;8.450;2023-02-28T07:05:15;9.77;;;8.77;;
21814;SDS011;11069;48.988;8.450;2023-02-28T07:07:41;10.23;;;9.20;;
21814;SDS011;11069;48.988;8.450;2023-02-28T07:10:10;9.75;;;8.80;;
21814;SDS011;11069;48.988;8.450;2023-02-28T07:12:36;9.95;;;8.95;;
21814;SDS011;11069;48.988;8.450;2023-02-28T07:15:02;9.75;;;8.48;;
21814;SDS011;11069;48.988;8.450;2023-02-28T07:17:29;10.30;;;8.88;;
21814;SDS011;11069;48.988;8.450;2023-02-28T07:19:55;9.85;;;8.85;;
21814;SDS011;11069;48.988;8.450;2023-02-28T07:22:23;10.18;;;9.20;;
21814;SDS011;11069;48.988;8.450;2023-02-28T07:24:49;11.55;;;9.50;;
21814;SDS011;11069;48.988;8.450;2023-02-28T07:27:15;11.10;;;9.90;;
21814;SDS011;11069;48.988;8.450;2023-02-28T07:29:48;10.05;;;8.82;;
21814;SDS011;11069;48.988;8.450;2023-02-28T07:32:14;11.18;;;9.15;;
21814;SDS011;11069;48.988;8.450;2023-02-28T07:34:40;10.57;;;8.90;;
21814;SDS011;11069;48.988;8.450;2023-02-28T07:37:06;9.18;;;8.27;;
21814;SDS011;11069;48.988;8.450;2023-02-28T07:39:31;11.07;;;9.25;;
21814;SDS011;11069;48.988;8.450;2023-02-28T07:41:57;10.50;;;9.18;;
21814;SDS011;11069;48.988;8.450;2023-02-28T07:44:24;10.57;;;8.90;;
21814;SDS011;11069;48.988;8.450;2023-02-28T07:46:50;11.77;;;9.23;;
21814;SDS011;11069;48.988;8.450;2023-02-28T07:49:16;10.25;;;9.13;;
21814;SDS011;11069;48.988;8.450;2023-02-28T07:51:41;10.43;;;9.43;;
21814;SDS011;11069;48.988;8.450;2023-02-28T07:54:07;9.75;;;8.75;;
21814;SDS011;11069;48.988;8.450;2023-02-28T07:56:32;9.82;;;8.88;;
21814;SDS011;11069;48.988;8.450;2023-02-28T07:58:58;10.98;;;9.07;;
21814;SDS011;11069;48.988;8.450;2023-02-28T08:01:23;9.85;;;8.85;;
21814;SDS011;11069;48.988;8.450;2023-02-28T08:03:50;9.95;;;8.50;;
21814;SDS011;11069;48.988;8.450;2023-02-28T08:06:17;11.27;;;9.02;;
21814;SDS011;11069;48.988;8.450;2023-02-28T08:08:45;9.55;;;8.55;;
21814;SDS011;11069;48.988;8.450;2023-02-28T08:11:11;10.40;;;9.07;;
21814;SDS011;11069;48.988;8.450;2023-02-28T08:13:37;10.32;;;9.23;;
21814;SDS011;11069;48.988;8.450;2023-02-28T08:16:02;12.07;;;9.88;;
21814;SDS011;11069;48.988;8.450;2023-02-28T08:18:28;10.15;;;9.23;;
21814;SDS011;11069;48.988;8.450;2023-02-28T08:20:54;11.40;;;9.13;;
21814;SDS011;11069;48.988;8.450;2023-02-28T08:23:19;10.57;;;9.18;;
21814;SDS011;11069;48.988;8.450;2023-02-28T08:25:52;10.63;;;9.50;;
21814;SDS011;11069;48.988;8.450;2023-02-28T08:28:18;10.55;;;9.40;;
21814;SDS011;11069;48.988;8.450;2023-02-28T08:30:44;10.52;;;9.43;;
21814;SDS011;11069;48.988;8.450;2023-02-28T08:33:09;12.32;;;9.70;;
21814;SDS011;11069;48.988;8.450;2023-02-28T08:35:35;11.18;;;9.95;;
21814;SDS011;11069;48.988;8.450;2023-02-28T08:38:02;13.18;;;9.63;;
21814;SDS011;11069;48.988;8.450;2023-02-28T08:40:28;11.70;;;9.95;;
21814;SDS011;11069;48.988;8.450;2023-02-28T08:42:53;11.43;;;9.77;;
21814;SDS011;11069;48.988;8.450;2023-02-28T08:45:19;10.60;;;9.50;;
21814;SDS011;11069;48.988;8.450;2023-02-28T08:47:44;11.13;;;10.02;;
21814;SDS011;11069;48.988;8.450;2023-02-28T08:50:10;10.80;;;9.68;;
21814;SDS011;11069;48.988;8.450;2023-02-28T08:52:35;12.63;;;9.63;;
21814;SDS011;11069;48.988;8.450;2023-02-28T08:55:01;10.60;;;9.38;;
21814;SDS011;11069;48.988;8.450;2023-02-28T08:57:27;12.32;;;9.80;;
21814;SDS011;11069;48.988;8.450;2023-02-28T08:59:52;11.90;;;10.05;;
21814;SDS011;11069;48.988;8.450;2023-02-28T09:02:18;10.48;;;9.45;;
21814;SDS011;11069;48.988;8.450;2023-02-28T09:04:43;11.20;;;9.82;;
21814;SDS011;11069;48.988;8.450;2023-02-28T09:07:10;10.95;;;9.85;;
21814;SDS011;11069;48.988;8.450;2023-02-28T09:09:37;10.68;;;9.57;;
21814;SDS011;11069;48.988;8.450;2023-02-28T09:12:02;14.70;;;12.95;;
21814;SDS011;11069;48.988;8.450;2023-02-28T09:14:28;12.00;;;10.20;;
21814;SDS011;11069;48.988;8.450;2023-02-28T09:16:54;12.25;;;10.23;;
21814;SDS011;11069;48.988;8.450;2023-02-28T09:19:19;11.48;;;9.45;;
21814;SDS011;11069;48.988;8.450;2023-02-28T09:21:45;11.07;;;9.98;;
21814;SDS011;11069;48.988;8.450;2023-02-28T09:24:11;17.45;;;10.70;;
21814;SDS011;11069;48.988;8.450;2023-02-28T09:26:39;13.15;;;10.30;;
21814;SDS011;11069;48.988;8.450;2023-02-28T09:29:05;15.55;;;10.00;;
21814;SDS011;11069;48.988;8.450;2023-02-28T09:31:31;11.50;;;10.40;;
21814;SDS011;11069;48.988;8.450;2023-02-28T09:33:57;11.55;;;9.75;;
21814;SDS011;11069;48.988;8.450;2023-02-28T09:36:24;10.68;;;9.57;;
21814;SDS011;11069;48.988;8.450;2023-02-28T09:38:51;12.43;;;10.60;;
21814;SDS011;11069;48.988;8.450;2023-02-28T09:43:55;11.90;;;9.93;;
21814;SDS011;11069;48.988;8.450;2023-02-28T09:46:30;11.38;;;10.00;;
21814;SDS011;11069;48.988;8.450;2023-02-28T09:48:57;10.88;;;9.80;;
21814;SDS011;11069;48.988;8.450;2023-02-28T09:54:00;12.38;;;11.07;;
21814;SDS011;11069;48.988;8.450;2023-02-28T09:56:28;11.63;;;10.43;;
21814;SDS011;11069;48.988;8.450;2023-02-28T10:06:30;13.18;;;10.98;;
21814;SDS011;11069;48.988;8.450;2023-02-28T10:11:57;13.10;;;10.45;;
21814;SDS011;11069;48.988;8.450;2023-02-28T10:14:29;18.45;;;11.15;;
21814;SDS011;11069;48.988;8.450;2023-02-28T10:16:59;13.47;;;10.90;;
21814;SDS011;11069;48.988;8.450;2023-02-28T10:19:40;13.47;;;10.80;;
21814;SDS011;11069;48.988;8.450;2023-02-28T10:22:16;12.15;;;10.85;;
21814;SDS011;11069;48.988;8.450;2023-02-28T10:24:48;14.60;;;10.90;;
21814;SDS011;11069;48.988;8.450;2023-02-28T10:29:48;11.18;;;9.07;;
21814;SDS011;11069;48.988;8.450;2023-02-28T10:32:16;11.82;;;10.73;;
21814;SDS011;11069;48.988;8.450;2023-02-28T10:34:44;13.50;;;11.18;;
21814;SDS011;11069;48.988;8.450;2023-02-28T10:37:16;13.57;;;11.30;;
21814;SDS011;11069;48.988;8.450;2023-02-28T10:39:43;11.85;;;9.98;;
21814;SDS011;11069;48.988;8.450;2023-02-28T10:42:21;11.80;;;10.50;;
21814;SDS011;11069;48.988;8.450;2023-02-28T10:44:50;18.17;;;11.00;;
21814;SDS011;11069;48.988;8.450;2023-02-28T10:47:29;13.85;;;10.50;;
21814;SDS011;11069;48.988;8.450;2023-02-28T10:49:55;12.20;;;10.95;;
21814;SDS011;11069;48.988;8.450;2023-02-28T10:52:35;13.40;;;10.68;;
21814;SDS011;11069;48.988;8.450;2023-02-28T10:55:20;14.25;;;11.07;;
21814;SDS011;11069;48.988;8.450;2023-02-28T10:57:52;15.02;;;11.82;;
21814;SDS011;11069;48.988;8.450;2023-02-28T11:02:50;15.48;;;10.88;;
21814;SDS011;11069;48.988;8.450;2023-02-28T11:10:44;14.85;;;12.15;;
21814;SDS011;11069;48.988;8.450;2023-02-28T11:13:19;12.43;;;10.75;;
21814;SDS011;11069;48.988;8.450;2023-02-28T11:15:51;12.95;;;10.95;;
21814;SDS011;11069;48.988;8.450;2023-02-28T11:21:04;13.20;;;11.60;;
21814;SDS011;11069;48.988;8.450;2023-02-28T11:23:30;12.88;;;11.05;;
21814;SDS011;11069;48.988;8.450;2023-02-28T11:26:00;13.40;;;12.00;;
21814;SDS011;11069;48.988;8.450;2023-02-28T11:28:31;13.60;;;12.20;;
21814;SDS011;11069;48.988;8.450;2023-02-28T11:31:00;14.13;;;12.00;;
21814;SDS011;11069;48.988;8.450;2023-02-28T11:33:54;17.08;;;12.20;;
21814;SDS011;11069;48.988;8.450;2023-02-28T11:36:28;14.13;;;11.43;;
21814;SDS011;11069;48.988;8.450;2023-02-28T11:38:57;12.27;;;10.98;;
21814;SDS011;11069;48.988;8.450;2023-02-28T11:41:31;12.45;;;11.15;;
21814;SDS011;11069;48.988;8.450;2023-02-28T11:44:32;13.02;;;11.60;;
21814;SDS011;11069;48.988;8.450;2023-02-28T11:47:16;12.63;;;11.35;;
21814;SDS011;11069;48.988;8.450;2023-02-28T11:58:33;18.63;;;11.65;;
21814;SDS011;11069;48.988;8.450;2023-02-28T12:03:44;12.68;;;10.23;;
21814;SDS011;11069;48.988;8.450;2023-02-28T12:06:15;13.18;;;10.70;;
21814;SDS011;11069;48.988;8.450;2023-02-28T12:09:02;11.90;;;10.70;;
21814;SDS011;11069;48.988;8.450;2023-02-28T12:12:07;12.88;;;11.57;;
21814;SDS011;11069;48.988;8.450;2023-02-28T12:14:49;13.43;;;11.68;;
21814;SDS011;11069;48.988;8.450;2023-02-28T12:28:13;12.15;;;10.95;;
21814;SDS011;11069;48.988;8.450;2023-02-28T12:30:52;12.95;;;10.90;;
21814;SDS011;11069;48.988;8.450;2023-02-28T12:33:33;12.48;;;10.80;;
21814;SDS011;11069;48.988;8.450;2023-02-28T12:36:04;14.07;;;10.75;;
21814;SDS011;11069;48.988;8.450;2023-02-28T12:38:40;12.32;;;11.02;;
21814;SDS011;11069;48.988;8.450;2023-02-28T12:41:13;17.05;;;10.60;;
21814;SDS011;11069;48.988;8.450;2023-02-28T12:43:46;12.35;;;10.43;;
21814;SDS011;11069;48.988;8.450;2023-02-28T12:46:17;13.30;;;10.48;;
21814;SDS011;11069;48.988;8.450;2023-02-28T12:48:57;11.90;;;10.70;;
21814;SDS011;11069;48.988;8.450;2023-02-28T12:51:27;12.48;;;10.20;;
21814;SDS011;11069;48.988;8.450;2023-02-28T12:59:16;12.80;;;10.50;;
21814;SDS011;11069;48.988;8.450;2023-02-28T13:10:09;12.27;;;10.75;;
21814;SDS011;11069;48.988;8.450;2023-02-28T13:12:35;13.23;;;10.13;;
21814;SDS011;11069;48.988;8.450;2023-02-28T13:17:51;12.52;;;10.30;;
21814;SDS011;11069;48.988;8.450;2023-02-28T13:20:29;14.90;;;10.90;;
21814;SDS011;11069;48.988;8.450;2023-02-28T13:23:01;15.50;;;10.35;;
21814;SDS011;11069;48.988;8.450;2023-02-28T13:27:59;17.13;;;10.85;;
21814;SDS011;11069;48.988;8.450;2023-02-28T13:33:36;11.52;;;10.40;;
21814;SDS011;11069;48.988;8.450;2023-02-28T13:38:59;11.65;;;10.45;;
21814;SDS011;11069;48.988;8.450;2023-02-28T13:41:46;12.45;;;11.30;;
21814;SDS011;11069;48.988;8.450;2023-02-28T13:44:19;12.40;;;11.02;;
21814;SDS011;11069;48.988;8.450;2023-02-28T13:49:18;13.30;;;10.98;;
21814;SDS011;11069;48.988;8.450;2023-02-28T13:52:14;13.73;;;12.05;;
21814;SDS011;11069;48.988;8.450;2023-02-28T13:55:09;12.80;;;11.60;;
21814;SDS011;11069;48.988;8.450;2023-02-28T13:58:16;13.13;;;11.75;;
21814;SDS011;11069;48.988;8.450;2023-02-28T14:07:03;16.27;;;12.38;;
21814;SDS011;11069;48.988;8.450;2023-02-28T14:17:58;13.93;;;12.13;;
21814;SDS011;11069;48.988;8.450;2023-02-28T14:20:29;13.90;;;12.50;;
21814;SDS011;11069;48.988;8.450;2023-02-28T14:28:41;13.10;;;11.80;;
21814;SDS011;11069;48.988;8.450;2023-02-28T14:31:25;13.73;;;12.00;;
21814;SDS011;11069;48.988;8.450;2023-02-28T14:36:38;13.02;;;11.63;;
21814;SDS011;11069;48.988;8.450;2023-02-28T14:39:13;14.05;;;11.75;;
21814;SDS011;11069;48.988;8.450;2023-02-28T14:41:41;12.85;;;11.55;;
21814;SDS011;11069;48.988;8.450;2023-02-28T14:46:52;14.20;;;11.73;;
21814;SDS011;11069;48.988;8.450;2023-02-28T14:49:29;13.45;;;11.60;;
21814;SDS011;11069;48.988;8.450;2023-02-28T14:52:03;14.15;;;12.18;;
21814;SDS011;11069;48.988;8.450;2023-02-28T14:54:30;15.20;;;12.10;;
21814;SDS011;11069;48.988;8.450;2023-02-28T14:56:57;13.18;;;11.73;;
21814;SDS011;11069;48.988;8.450;2023-02-28T15:01:48;13.50;;;12.10;;
21814;SDS011;11069;48.988;8.450;2023-02-28T15:04:18;14.20;;;12.70;;
21814;SDS011;11069;48.988;8.450;2023-02-28T15:09:39;13.65;;;12.23;;
21814;SDS011;11069;48.988;8.450;2023-02-28T15:12:05;14.15;;;12.68;;
21814;SDS011;11069;48.988;8.450;2023-02-28T15:14:30;13.70;;;12.40;;
21814;SDS011;11069;48.988;8.450;2023-02-28T15:16:58;13.80;;;12.38;;
21814;SDS011;11069;48.988;8.450;2023-02-28T15:19:30;14.40;;;12.90;;
21814;SDS011;11069;48.988;8.450;2023-02-28T15:22:03;14.85;;;12.65;;
21814;SDS011;11069;48.988;8.450;2023-02-28T15:27:13;13.95;;;12.55;;
21814;SDS011;11069;48.988;8.450;2023-02-28T15:29:51;14.30;;;12.90;;
21814;SDS011;11069;48.988;8.450;2023-02-28T15:32:26;17.25;;;14.30;;
21814;SDS011;11069;48.988;8.450;2023-02-28T15:34:54;16.52;;;14.73;;
21814;SDS011;11069;48.988;8.450;2023-02-28T15:42:36;14.70;;;13.13;;
21814;SDS011;11069;48.988;8.450;2023-02-28T15:45:02;14.80;;;13.23;;
21814;SDS011;11069;48.988;8.450;2023-02-28T15:47:28;14.25;;;12.70;;
21814;SDS011;11069;48.988;8.450;2023-02-28T15:49:58;14.32;;;12.65;;
21814;SDS011;11069;48.988;8.450;2023-02-28T15:52:42;14.00;;;12.60;;
21814;SDS011;11069;48.988;8.450;2023-02-28T15:55:18;14.45;;;12.95;;
21814;SDS011;11069;48.988;8.450;2023-02-28T15:57:54;13.73;;;12.40;;
21814;SDS011;11069;48.988;8.450;2023-02-28T16:00:26;15.45;;;13.85;;
21814;SDS011;11069;48.988;8.450;2023-02-28T16:02:53;14.57;;;13.10;;
21814;SDS011;11069;48.988;8.450;2023-02-28T16:07:53;15.70;;;13.85;;
21814;SDS011;11069;48.988;8.450;2023-02-28T16:10:23;14.52;;;13.07;;
21814;SDS011;11069;48.988;8.450;2023-02-28T16:12:52;13.65;;;12.25;;
21814;SDS011;11069;48.988;8.450;2023-02-28T16:15:24;15.30;;;12.98;;
21814;SDS011;11069;48.988;8.450;2023-02-28T16:17:52;14.35;;;12.88;;
21814;SDS011;11069;48.988;8.450;2023-02-28T16:20:20;18.45;;;13.95;;
21814;SDS011;11069;48.988;8.450;2023-02-28T16:22:48;14.90;;;13.35;;
21814;SDS011;11069;48.988;8.450;2023-02-28T16:25:15;15.57;;;12.93;;
21814;SDS011;11069;48.988;8.450;2023-02-28T16:27:43;14.77;;;13.35;;
21814;SDS011;11069;48.988;8.450;2023-02-28T16:30:21;16.48;;;14.75;;
21814;SDS011;11069;48.988;8.450;2023-02-28T16:32:49;16.10;;;14.50;;
21814;SDS011;11069;48.988;8.450;2023-02-28T16:35:15;15.75;;;14.15;;
21814;SDS011;11069;48.988;8.450;2023-02-28T16:37:43;16.10;;;14.45;;
21814;SDS011;11069;48.988;8.450;2023-02-28T16:40:13;15.68;;;14.05;;
21814;SDS011;11069;48.988;8.450;2023-02-28T16:42:43;17.25;;;15.45;;
21814;SDS011;11069;48.988;8.450;2023-02-28T16:45:14;16.15;;;14.35;;
21814;SDS011;11069;48.988;8.450;2023-02-28T16:47:46;16.00;;;14.30;;
21814;SDS011;11069;48.988;8.450;2023-02-28T16:50:16;16.10;;;14.27;;
21814;SDS011;11069;48.988;8.450;2023-02-28T16:52:46;15.73;;;14.05;;
21814;SDS011;11069;48.988;8.450;2023-02-28T16:55:11;16.50;;;14.80;;
21814;SDS011;11069;48.988;8.450;2023-02-28T16:57:38;17.38;;;14.20;;
21814;SDS011;11069;48.988;8.450;2023-02-28T17:00:05;15.15;;;13.65;;
21814;SDS011;11069;48.988;8.450;2023-02-28T17:02:33;18.35;;;15.40;;
21814;SDS011;11069;48.988;8.450;2023-02-28T17:04:59;18.77;;;15.73;;
21814;SDS011;11069;48.988;8.450;2023-02-28T17:07:24;17.88;;;15.98;;
21814;SDS011;11069;48.988;8.450;2023-02-28T17:09:50;20.65;;;18.35;;
21814;SDS011;11069;48.988;8.450;2023-02-28T17:12:16;27.92;;;22.83;;
21814;SDS011;11069;48.988;8.450;2023-02-28T17:14:42;27.85;;;23.20;;
21814;SDS011;11069;48.988;8.450;2023-02-28T17:17:09;30.17;;;23.10;;
21814;SDS011;11069;48.988;8.450;2023-02-28T17:19:40;18.67;;;16.75;;
21814;SDS011;11069;48.988;8.450;2023-02-28T17:22:08;23.95;;;20.83;;
21814;SDS011;11069;48.988;8.450;2023-02-28T17:24:35;23.85;;;20.60;;
21814;SDS011;11069;48.988;8.450;2023-02-28T17:27:01;22.27;;;19.88;;
21814;SDS011;11069;48.988;8.450;2023-02-28T17:29:26;19.55;;;16.73;;
21814;SDS011;11069;48.988;8.450;2023-02-28T17:31:52;18.83;;;15.65;;
21814;SDS011;11069;48.988;8.450;2023-02-28T17:34:18;17.38;;;15.50;;